createdAt,value
2023-04-23T00:00:48.983Z,36.25
2023-04-23T00:03:17.886Z,36.31
2023-04-23T00:05:46.854Z,36.44
2023-04-23T00:08:15.159Z,36.30
2023-04-23T00:10:43.518Z,36.18
2023-04-23T00:13:11.839Z,35.83
2023-04-23T00:15:40.178Z,35.74
2023-04-23T00:18:08.277Z,35.92
2023-04-23T00:20:37.036Z,35.83
2023-04-23T00:23:05.237Z,35.98
2023-04-23T00:25:33.234Z,36.09
2023-04-23T00:28:01.434Z,35.86
2023-04-23T00:30:29.850Z,35.70
2023-04-23T00:32:58.070Z,35.70
2023-04-23T00:35:26.283Z,35.94
2023-04-23T00:37:54.360Z,36.01
2023-04-23T00:40:23.696Z,36.04
2023-04-23T00:42:54.027Z,35.95
2023-04-23T00:45:22.233Z,36.11
2023-04-23T00:47:50.600Z,36.27
2023-04-23T00:50:18.973Z,36.36
2023-04-23T00:52:47.052Z,36.25
2023-04-23T00:55:15.237Z,35.52
2023-04-23T00:57:43.516Z,35.74
2023-04-23T01:00:14.219Z,35.99
2023-04-23T01:02:43.870Z,35.76
2023-04-23T01:05:12.556Z,35.98
2023-04-23T01:07:42.311Z,35.92
2023-04-23T01:10:11.506Z,35.87
2023-04-23T01:12:39.807Z,35.97
2023-04-23T01:15:09.187Z,35.47
2023-04-23T01:17:38.439Z,35.56
2023-04-23T01:20:08.484Z,35.44
2023-04-23T01:22:37.845Z,35.42
2023-04-23T01:25:08.100Z,35.83
2023-04-23T01:27:36.656Z,36.05
2023-04-23T01:30:06.131Z,36.37
2023-04-23T01:32:35.579Z,36.46
2023-04-23T01:35:04.855Z,36.40
2023-04-23T01:37:33.600Z,36.07
2023-04-23T01:40:01.744Z,35.92
2023-04-23T01:42:30.532Z,35.65
2023-04-23T01:44:58.631Z,35.71
2023-04-23T01:47:26.845Z,35.84
2023-04-23T01:49:55.436Z,35.90
2023-04-23T01:52:23.557Z,36.11
2023-04-23T01:57:07.501Z,38.58
2023-04-23T01:59:36.088Z,37.11
2023-04-23T02:02:04.549Z,36.50
2023-04-23T02:04:33.935Z,35.82
2023-04-23T02:07:02.288Z,35.50
2023-04-23T02:09:30.527Z,35.76
2023-04-23T02:12:02.369Z,35.78
2023-04-23T02:14:31.077Z,35.98
2023-04-23T02:16:59.257Z,36.05
2023-04-23T02:19:28.062Z,36.13
2023-04-23T02:21:56.470Z,36.12
2023-04-23T02:24:24.700Z,36.24
2023-04-23T02:26:52.999Z,36.59
2023-04-23T02:29:21.667Z,36.72
2023-04-23T02:31:50.009Z,36.70
2023-04-23T02:34:18.156Z,36.60
2023-04-23T02:36:46.394Z,36.69
2023-04-23T02:39:15.087Z,36.86
2023-04-23T02:41:43.379Z,36.87
2023-04-23T02:44:11.440Z,36.92
2023-04-23T02:46:39.487Z,37.11
2023-04-23T02:49:08.089Z,37.39
2023-04-23T02:51:36.469Z,37.30
2023-04-23T02:54:04.784Z,37.09
2023-04-23T02:56:33.129Z,37.08
2023-04-23T02:59:01.587Z,36.92
2023-04-23T03:01:30.090Z,37.20
2023-04-23T03:03:59.062Z,37.16
2023-04-23T03:06:27.418Z,36.97
2023-04-23T03:08:56.285Z,37.08
2023-04-23T03:11:24.311Z,37.03
2023-04-23T03:13:52.617Z,37.07
2023-04-23T03:16:20.712Z,37.40
2023-04-23T03:18:49.033Z,37.61
2023-04-23T03:21:17.497Z,37.73
2023-04-23T03:23:45.827Z,37.80
2023-04-23T03:26:13.900Z,37.78
2023-04-23T03:28:42.124Z,37.82
2023-04-23T03:31:10.477Z,37.87
2023-04-23T03:33:38.833Z,37.94
2023-04-23T03:36:07.844Z,37.83
2023-04-23T03:38:36.375Z,37.28
2023-04-23T03:41:05.319Z,37.21
2023-04-23T03:43:34.099Z,37.45
2023-04-23T03:46:05.149Z,37.84
2023-04-23T03:48:37.164Z,38.00
2023-04-23T03:51:08.979Z,37.95
2023-04-23T03:53:46.464Z,38.06
2023-04-23T03:56:34.106Z,38.17
2023-04-23T03:59:20.404Z,38.07
2023-04-23T04:01:50.338Z,38.28
2023-04-23T04:04:19.468Z,38.27
2023-04-23T04:06:49.859Z,38.31
2023-04-23T04:09:18.220Z,38.36
2023-04-23T04:11:46.400Z,38.36
2023-04-23T04:14:14.788Z,38.57
2023-04-23T04:16:42.950Z,38.58
2023-04-23T04:19:11.176Z,38.66
2023-04-23T04:21:39.410Z,38.56
2023-04-23T04:24:07.987Z,38.51
2023-04-23T04:26:36.162Z,38.56
2023-04-23T04:29:04.947Z,38.32
2023-04-23T04:31:33.131Z,38.35
2023-04-23T04:34:01.225Z,38.38
2023-04-23T04:36:29.780Z,38.46
2023-04-23T04:39:00.832Z,38.35
2023-04-23T04:41:29.097Z,38.04
2023-04-23T04:43:58.910Z,37.82
2023-04-23T04:46:29.430Z,37.54
2023-04-23T04:48:57.929Z,37.23
2023-04-23T04:51:27.435Z,36.93
2023-04-23T04:53:56.855Z,36.49
2023-04-23T04:56:26.035Z,35.83
2023-04-23T04:58:54.230Z,34.98
2023-04-23T05:01:24.813Z,34.52
2023-04-23T05:03:53.875Z,33.27
2023-04-23T05:06:22.318Z,32.47
2023-04-23T05:08:50.509Z,32.51
2023-04-23T05:11:18.609Z,32.42
2023-04-23T05:13:50.125Z,31.76
2023-04-23T05:16:18.464Z,31.24
2023-04-23T05:18:46.915Z,30.62
2023-04-23T05:21:16.004Z,30.41
2023-04-23T05:23:44.169Z,30.27
2023-04-23T05:26:12.550Z,29.78
2023-04-23T05:28:41.069Z,29.57
2023-04-23T05:31:09.295Z,29.08
2023-04-23T05:33:48.751Z,28.43
2023-04-23T05:36:18.876Z,27.63
2023-04-23T05:38:47.449Z,27.08
2023-04-23T05:41:16.329Z,27.24
2023-04-23T05:43:44.535Z,27.47
2023-04-23T05:46:12.722Z,27.48
2023-04-23T05:48:40.846Z,27.25
2023-04-23T05:51:09.072Z,26.91
2023-04-23T05:53:37.836Z,26.80
2023-04-23T05:56:06.248Z,26.75
2023-04-23T05:58:34.433Z,26.52
2023-04-23T06:01:03.174Z,26.42
2023-04-23T06:03:31.754Z,26.23
2023-04-23T06:06:00.767Z,25.85
2023-04-23T06:08:29.641Z,25.75
2023-04-23T06:10:58.262Z,25.92
2023-04-23T06:13:28.359Z,25.97
2023-04-23T06:15:56.704Z,26.11
2023-04-23T06:18:25.096Z,26.18
2023-04-23T06:20:53.362Z,25.72
2023-04-23T06:23:22.121Z,24.72
2023-04-23T06:25:50.345Z,24.31
2023-04-23T06:28:18.553Z,24.30
2023-04-23T06:31:06.485Z,23.68
2023-04-23T06:33:37.138Z,23.37
2023-04-23T06:36:05.882Z,23.35
2023-04-23T06:38:34.177Z,23.49
2023-04-23T06:41:02.856Z,23.56
2023-04-23T06:43:31.188Z,23.16
2023-04-23T06:46:31.595Z,23.02
2023-04-23T06:48:59.834Z,22.86
2023-04-23T06:51:28.108Z,22.35
2023-04-23T06:53:56.492Z,22.44
2023-04-23T06:56:24.772Z,22.45
2023-04-23T06:58:53.086Z,21.66
2023-04-23T07:01:22.934Z,21.39
2023-04-23T07:03:54.790Z,20.39
2023-04-23T07:06:23.107Z,19.50
2023-04-23T07:08:51.335Z,18.84
2023-04-23T07:11:19.691Z,18.08
2023-04-23T07:13:48.668Z,17.05
2023-04-23T07:16:17.203Z,16.66
2023-04-23T07:18:46.104Z,16.15
2023-04-23T07:21:14.351Z,15.53
2023-04-23T07:23:42.549Z,15.76
2023-04-23T07:26:10.790Z,15.87
2023-04-23T07:28:39.055Z,15.31
2023-04-23T07:31:08.174Z,14.41
2023-04-23T07:33:36.455Z,14.11
2023-04-23T07:36:04.608Z,14.38
2023-04-23T07:38:32.889Z,13.97
2023-04-23T07:41:01.419Z,13.88
2023-04-23T07:43:29.956Z,13.09
2023-04-23T07:45:58.355Z,13.24
2023-04-23T07:48:26.822Z,13.70
2023-04-23T07:50:55.264Z,13.50
2023-04-23T07:53:23.528Z,13.78
2023-04-23T07:55:52.690Z,14.57
2023-04-23T07:58:21.153Z,14.68
2023-04-23T08:00:49.310Z,14.53
2023-04-23T08:03:17.457Z,14.32
2023-04-23T08:05:45.849Z,14.23
2023-04-23T08:08:14.394Z,14.56
2023-04-23T08:10:43.373Z,15.26
2023-04-23T08:13:11.851Z,15.04
2023-04-23T08:15:40.109Z,14.39
2023-04-23T08:18:08.418Z,14.05
2023-04-23T08:20:36.782Z,14.23
2023-04-23T08:23:05.072Z,13.92
2023-04-23T08:25:33.563Z,13.62
2023-04-23T08:28:02.641Z,13.30
2023-04-23T08:30:31.126Z,13.50
2023-04-23T08:32:59.327Z,13.95
2023-04-23T08:35:27.768Z,14.72
2023-04-23T08:37:55.800Z,14.74
2023-04-23T08:40:24.442Z,14.79
2023-04-23T08:43:02.027Z,14.98
2023-04-23T08:45:31.045Z,14.91
2023-04-23T08:48:02.182Z,14.76
2023-04-23T08:50:31.262Z,14.91
2023-04-23T08:52:59.658Z,15.31
2023-04-23T08:55:27.860Z,15.70
2023-04-23T08:57:58.462Z,15.35
2023-04-23T09:00:26.565Z,15.38
2023-04-23T09:02:54.989Z,15.50
2023-04-23T09:05:23.505Z,15.24
2023-04-23T09:07:51.679Z,15.49
2023-04-23T09:10:19.958Z,15.58
2023-04-23T09:12:48.409Z,15.63
2023-04-23T09:15:16.912Z,15.55
2023-04-23T09:17:47.000Z,15.47
2023-04-23T09:20:15.690Z,15.53
2023-04-23T09:22:47.530Z,16.02
2023-04-23T09:25:18.087Z,16.56
2023-04-23T09:27:50.372Z,16.70
2023-04-23T09:30:18.966Z,16.03
2023-04-23T09:32:48.423Z,15.90
2023-04-23T09:35:17.711Z,15.78
2023-04-23T09:37:48.949Z,15.71
2023-04-23T09:40:22.796Z,15.95
2023-04-23T09:42:54.463Z,15.75
2023-04-23T09:45:25.445Z,15.45
2023-04-23T09:47:55.386Z,15.50
2023-04-23T09:50:32.844Z,15.30
2023-04-23T09:53:01.043Z,15.33
2023-04-23T09:55:38.958Z,15.10
2023-04-23T09:58:15.158Z,14.94
2023-04-23T10:00:43.572Z,14.85
2023-04-23T10:03:12.446Z,14.88
2023-04-23T10:06:00.330Z,15.17
2023-04-23T10:08:31.034Z,15.11
2023-04-23T10:11:10.028Z,15.08
2023-04-23T10:13:47.258Z,15.13
2023-04-23T10:16:23.317Z,14.68
2023-04-23T10:18:57.221Z,14.63
2023-04-23T10:21:33.994Z,14.99
2023-04-23T10:24:07.904Z,14.99
2023-04-23T10:26:38.957Z,15.15
2023-04-23T10:29:09.456Z,15.20
2023-04-23T10:31:37.988Z,14.96
2023-04-23T10:34:06.683Z,15.07
2023-04-23T10:36:35.433Z,15.57
2023-04-23T10:39:07.998Z,15.63
2023-04-23T10:41:38.141Z,15.64
2023-04-23T10:44:07.481Z,15.60
2023-04-23T10:46:38.546Z,15.61
2023-04-23T10:49:17.328Z,15.97
2023-04-23T10:54:20.901Z,15.94
2023-04-23T10:56:49.310Z,16.48
2023-04-23T10:59:21.505Z,17.05
2023-04-23T11:01:52.896Z,17.31
2023-04-23T11:04:25.386Z,17.11
2023-04-23T11:07:14.682Z,16.80
2023-04-23T11:09:47.666Z,16.58
2023-04-23T11:12:25.071Z,16.28
2023-04-23T11:14:54.921Z,16.52
2023-04-23T11:17:24.697Z,16.40
2023-04-23T11:20:20.405Z,16.04
2023-04-23T11:22:50.081Z,16.11
2023-04-23T11:25:28.229Z,15.95
2023-04-23T11:27:58.861Z,15.70
2023-04-23T11:30:30.893Z,16.11
2023-04-23T11:33:00.638Z,16.18
2023-04-23T11:35:30.721Z,16.27
2023-04-23T11:37:59.155Z,16.75
2023-04-23T11:40:31.153Z,17.47
2023-04-23T11:42:59.703Z,17.87
2023-04-23T11:45:29.286Z,17.68
2023-04-23T11:47:59.432Z,17.33
2023-04-23T11:50:30.179Z,16.95
2023-04-23T11:52:58.355Z,17.01
2023-04-23T11:55:26.709Z,17.33
2023-04-23T11:57:54.789Z,18.28
2023-04-23T12:00:29.132Z,18.65
2023-04-23T12:03:01.687Z,18.80
2023-04-23T12:05:38.335Z,18.60
2023-04-23T12:08:11.564Z,17.95
2023-04-23T12:10:52.115Z,17.50
2023-04-23T12:13:24.909Z,17.33
2023-04-23T12:15:58.291Z,17.33
2023-04-23T12:18:41.534Z,17.30
2023-04-23T12:21:10.759Z,17.60
2023-04-23T12:23:40.544Z,17.54
2023-04-23T12:26:12.815Z,17.19
2023-04-23T12:28:53.715Z,17.15
2023-04-23T12:31:23.283Z,17.40
2023-04-23T12:34:05.316Z,17.43
2023-04-23T12:36:36.429Z,17.19
2023-04-23T12:39:23.631Z,17.30
2023-04-23T12:42:05.594Z,17.10
2023-04-23T12:44:35.555Z,17.02
2023-04-23T12:47:11.662Z,17.01
2023-04-23T12:49:40.560Z,17.00
2023-04-23T12:52:10.046Z,17.08
2023-04-23T12:54:40.264Z,17.54
2023-04-23T12:57:11.318Z,17.21
2023-04-23T12:59:39.908Z,17.32
2023-04-23T13:02:08.578Z,17.30
2023-04-23T13:04:36.996Z,17.08
2023-04-23T13:07:05.267Z,16.93
2023-04-23T13:09:36.073Z,16.70
2023-04-23T13:12:04.442Z,16.77
2023-04-23T13:14:33.074Z,16.10
2023-04-23T13:17:02.773Z,16.25
2023-04-23T13:19:40.184Z,15.85
2023-04-23T13:22:08.730Z,16.27
2023-04-23T13:24:36.963Z,16.07
2023-04-23T13:27:05.183Z,16.04
2023-04-23T13:29:33.671Z,15.82
2023-04-23T13:32:01.885Z,16.03
2023-04-23T13:34:31.139Z,16.27
2023-04-23T13:37:00.542Z,16.00
2023-04-23T13:39:28.622Z,15.63
2023-04-23T13:42:08.969Z,15.93
2023-04-23T13:44:38.686Z,15.73
2023-04-23T13:47:07.120Z,15.66
2023-04-23T13:49:36.106Z,15.48
2023-04-23T13:52:06.942Z,15.34
2023-04-23T13:54:36.265Z,15.34
2023-04-23T13:57:04.924Z,15.25
2023-04-23T13:59:33.907Z,15.22
2023-04-23T14:02:01.948Z,15.32
2023-04-23T14:04:30.844Z,15.39
2023-04-23T14:06:59.136Z,15.38
2023-04-23T14:09:27.306Z,15.20
2023-04-23T14:11:56.433Z,15.32
2023-04-23T14:15:09.948Z,16.09
2023-04-23T14:17:40.756Z,15.63
2023-04-23T14:20:09.598Z,15.49
2023-04-23T14:22:37.897Z,15.34
2023-04-23T14:25:26.219Z,15.49
2023-04-23T14:27:55.941Z,15.29
2023-04-23T14:30:26.853Z,15.38
2023-04-23T14:32:56.812Z,15.70
2023-04-23T14:35:35.903Z,15.93
2023-04-23T14:38:08.530Z,15.74
2023-04-23T14:40:35.628Z,15.66
2023-04-23T14:43:14.420Z,15.91
2023-04-23T14:45:41.952Z,16.06
2023-04-23T14:48:08.858Z,15.93
2023-04-23T14:50:35.759Z,15.74
2023-04-23T14:53:09.145Z,15.85
2023-04-23T14:55:38.911Z,16.08
2023-04-23T14:58:06.578Z,16.21
2023-04-23T15:00:33.808Z,16.14
2023-04-23T15:03:03.020Z,16.17
2023-04-23T15:05:30.102Z,16.29
2023-04-23T15:07:56.927Z,16.45
2023-04-23T15:10:24.182Z,16.28
2023-04-23T15:12:56.954Z,16.26
2023-04-23T15:15:41.171Z,16.32
2023-04-23T15:18:13.686Z,16.47
2023-04-23T15:20:41.252Z,16.59
2023-04-23T15:23:08.204Z,16.81
2023-04-23T15:25:35.559Z,16.89
2023-04-23T15:28:02.910Z,16.91
2023-04-23T15:30:30.289Z,17.02
2023-04-23T15:32:57.618Z,16.85
2023-04-23T15:35:26.381Z,16.89
2023-04-23T15:37:57.373Z,16.91
2023-04-23T15:40:24.200Z,16.94
2023-04-23T15:42:51.170Z,17.05
2023-04-23T15:45:18.301Z,16.85
2023-04-23T15:47:45.430Z,16.79
2023-04-23T15:50:13.320Z,17.06
2023-04-23T15:52:41.902Z,17.25
2023-04-23T15:55:09.687Z,17.31
2023-04-23T15:57:36.844Z,17.37
2023-04-23T16:00:06.156Z,17.45
2023-04-23T16:03:04.867Z,17.54
2023-04-23T16:05:44.922Z,17.54
2023-04-23T16:08:12.029Z,17.40
2023-04-23T16:10:38.978Z,17.42
2023-04-23T16:13:06.643Z,17.25
2023-04-23T16:15:34.249Z,17.39
2023-04-23T16:18:01.120Z,17.63
2023-04-23T16:20:28.520Z,17.68
2023-04-23T16:22:55.757Z,17.54
2023-04-23T16:25:38.916Z,17.87
2023-04-23T16:28:15.067Z,17.85
2023-04-23T16:30:43.023Z,17.83
2023-04-23T16:33:10.327Z,17.81
2023-04-23T16:35:37.181Z,18.07
2023-04-23T16:38:03.992Z,18.34
2023-04-23T16:40:30.803Z,18.80
2023-04-23T16:42:57.774Z,18.89
2023-04-23T16:45:24.711Z,19.33
2023-04-23T16:47:51.612Z,19.56
2023-04-23T16:50:18.605Z,20.54
2023-04-23T16:52:45.649Z,20.62
2023-04-23T16:55:12.881Z,20.72
2023-04-23T16:57:39.704Z,21.02
2023-04-23T17:00:08.215Z,21.25
2023-04-23T17:02:35.454Z,20.84
2023-04-23T17:05:02.612Z,20.52
2023-04-23T17:07:29.391Z,20.40
2023-04-23T17:09:56.564Z,20.92
2023-04-23T17:12:23.579Z,20.83
2023-04-23T17:14:50.838Z,20.68
2023-04-23T17:17:17.868Z,20.55
2023-04-23T17:19:45.958Z,20.56
2023-04-23T17:22:12.814Z,20.67
2023-04-23T17:24:39.799Z,20.86
2023-04-23T17:27:06.873Z,21.69
2023-04-23T17:29:33.837Z,22.49
2023-04-23T17:32:02.965Z,23.03
2023-04-23T17:34:29.929Z,23.15
2023-04-23T17:36:56.912Z,23.28
2023-04-23T17:39:25.677Z,23.51
2023-04-23T17:41:52.752Z,24.20
2023-04-23T17:44:19.912Z,24.51
2023-04-23T17:46:46.953Z,24.64
2023-04-23T17:49:13.922Z,24.53
2023-04-23T17:51:40.850Z,24.44
2023-04-23T17:54:07.900Z,24.37
2023-04-23T17:56:34.816Z,24.30
2023-04-23T17:59:01.790Z,24.34
2023-04-23T18:01:29.000Z,24.45
2023-04-23T18:03:56.370Z,24.73
2023-04-23T18:06:23.753Z,24.88
2023-04-23T18:08:50.805Z,25.31
2023-04-23T18:11:18.735Z,25.76
2023-04-23T18:13:45.719Z,25.98
2023-04-23T18:16:12.569Z,25.82
2023-04-23T18:18:39.517Z,25.77
2023-04-23T18:21:06.459Z,25.95
2023-04-23T18:23:36.069Z,26.18
2023-04-23T18:26:03.039Z,26.20
2023-04-23T18:28:30.048Z,26.33
2023-04-23T18:31:02.584Z,26.56
2023-04-23T18:33:49.638Z,26.74
2023-04-23T18:36:47.028Z,27.03
2023-04-23T18:39:14.075Z,27.32
2023-04-23T18:41:41.248Z,26.67
2023-04-23T18:44:08.278Z,26.48
2023-04-23T18:46:35.226Z,26.22
2023-04-23T18:49:06.734Z,26.35
2023-04-23T18:51:38.191Z,26.54
2023-04-23T18:54:06.097Z,26.85
2023-04-23T18:56:33.877Z,27.19
2023-04-23T18:59:00.911Z,27.23
2023-04-23T19:01:28.644Z,27.72
2023-04-23T19:03:57.381Z,28.08
2023-04-23T19:06:24.927Z,28.61
2023-04-23T19:08:51.818Z,28.61
2023-04-23T19:11:18.815Z,28.54
2023-04-23T19:13:45.701Z,28.78
2023-04-23T19:16:12.832Z,29.06
2023-04-23T19:18:39.846Z,29.39
2023-04-23T19:21:07.015Z,29.42
2023-04-23T19:23:34.164Z,28.34
2023-04-23T19:26:01.934Z,28.26
2023-04-23T19:28:28.981Z,28.25
2023-04-23T19:30:56.180Z,28.03
2023-04-23T19:33:23.798Z,28.18
2023-04-23T19:35:51.045Z,28.41
2023-04-23T19:38:18.019Z,28.35
2023-04-23T19:40:45.251Z,28.39
2023-04-23T19:43:12.829Z,28.37
2023-04-23T19:45:39.874Z,27.92
2023-04-23T19:48:08.481Z,28.09
2023-04-23T19:50:35.937Z,27.73
2023-04-23T19:53:04.795Z,27.47
2023-04-23T19:55:31.790Z,27.92
2023-04-23T19:57:58.912Z,28.44
2023-04-23T20:00:26.838Z,28.80
2023-04-23T20:02:55.633Z,28.69
2023-04-23T20:05:23.106Z,29.15
2023-04-23T20:07:50.051Z,29.79
2023-04-23T20:10:17.600Z,30.44
2023-04-23T20:12:44.773Z,30.90
2023-04-23T20:15:12.754Z,31.10
2023-04-23T20:17:39.962Z,31.13
2023-04-23T20:20:09.499Z,31.34
2023-04-23T20:22:36.444Z,31.65
2023-04-23T20:25:03.711Z,31.94
2023-04-23T20:27:30.649Z,31.98
2023-04-23T20:29:57.677Z,32.01
2023-04-23T20:32:24.717Z,32.31
2023-04-23T20:34:52.747Z,32.61
2023-04-23T20:37:22.654Z,32.83
2023-04-23T20:39:50.192Z,32.71
2023-04-23T20:42:17.115Z,32.61
2023-04-23T20:44:45.737Z,32.74
2023-04-23T20:47:13.813Z,32.81
2023-04-23T20:49:41.158Z,32.76
2023-04-23T20:52:08.533Z,33.05
2023-04-23T20:54:36.402Z,33.03
2023-04-23T20:57:04.152Z,32.99
2023-04-23T20:59:31.413Z,33.23
2023-04-23T21:01:58.543Z,33.35
2023-04-23T21:04:25.728Z,33.63
2023-04-23T21:06:52.755Z,33.85
2023-04-23T21:09:19.799Z,34.53
2023-04-23T21:11:46.753Z,34.98
2023-04-23T21:14:13.692Z,34.93
2023-04-23T21:16:40.746Z,35.10
2023-04-23T21:19:07.801Z,35.12
2023-04-23T21:21:34.592Z,34.94
2023-04-23T21:24:01.688Z,35.09
2023-04-23T21:26:30.468Z,35.31
2023-04-23T21:28:57.435Z,35.27
2023-04-23T21:31:45.686Z,35.40
2023-04-23T21:34:14.278Z,35.42
2023-04-23T21:36:41.168Z,35.45
2023-04-23T21:39:08.119Z,35.25
2023-04-23T21:41:35.216Z,35.26
2023-04-23T21:44:02.092Z,35.37
2023-04-23T21:46:30.475Z,35.21
2023-04-23T21:48:58.688Z,35.13
2023-04-23T21:51:26.373Z,34.98
2023-04-23T21:53:53.204Z,34.95
2023-04-23T21:56:20.017Z,34.86
2023-04-23T21:58:46.890Z,34.61
2023-04-23T22:01:14.059Z,34.40
2023-04-23T22:03:43.730Z,33.86
2023-04-23T22:06:10.822Z,33.40
2023-04-23T22:08:38.269Z,33.53
2023-04-23T22:11:07.045Z,33.49
2023-04-23T22:13:34.814Z,33.03
2023-04-23T22:16:03.903Z,32.90
2023-04-23T22:18:33.349Z,32.96
2023-04-23T22:21:00.259Z,32.96
2023-04-23T22:23:28.436Z,33.12
2023-04-23T22:25:55.493Z,33.24
2023-04-23T22:28:22.442Z,33.51
2023-04-23T22:30:49.999Z,33.50
2023-04-23T22:33:16.947Z,33.11
2023-04-23T22:35:44.090Z,32.93
2023-04-23T22:38:10.956Z,32.63
2023-04-23T22:40:37.806Z,32.62
2023-04-23T22:43:04.711Z,32.59
2023-04-23T22:45:31.616Z,32.63
2023-04-23T22:47:58.438Z,32.73
2023-04-23T22:50:27.083Z,32.85
2023-04-23T22:52:53.944Z,33.11
2023-04-23T22:55:20.973Z,33.84
2023-04-23T22:57:47.863Z,34.00
2023-04-23T23:00:15.498Z,33.92
2023-04-23T23:02:42.565Z,33.89
2023-04-23T23:05:09.735Z,33.88
2023-04-23T23:07:36.964Z,33.85
2023-04-23T23:10:08.731Z,33.92
2023-04-23T23:12:36.792Z,33.89
2023-04-23T23:15:04.252Z,33.54
2023-04-23T23:17:31.381Z,33.52
2023-04-23T23:19:58.354Z,33.76
2023-04-23T23:22:27.153Z,34.03
2023-04-23T23:24:54.497Z,34.08
2023-04-23T23:27:21.449Z,34.06
2023-04-23T23:29:48.391Z,34.09
2023-04-23T23:32:15.537Z,34.41
2023-04-23T23:34:42.485Z,34.56
2023-04-23T23:37:09.430Z,34.71
2023-04-23T23:39:36.377Z,34.65
2023-04-23T23:42:03.454Z,34.58
2023-04-23T23:44:30.779Z,34.43
2023-04-23T23:46:58.059Z,34.32
2023-04-23T23:49:25.092Z,34.41
2023-04-23T23:51:52.134Z,34.64
2023-04-23T23:54:19.092Z,34.73
2023-04-23T23:56:45.931Z,34.86
2023-04-23T23:59:13.116Z,34.93
